Time;durP1;ratioP1;P1;durP2;ratioP2;P2;SDS_P1;SDS_P2;PMS_P1;PMS_P2;Temp;Humidity;BMP_temperature;BMP_pressure;BME280_temperature;BME280_humidity;BME280_pressure;Samples;Min_cycle;Max_cycle;Signal;HPM_P1;HPM_P2
2021/06/12 00:01:25;;;;;;;6.60;4.87;;;17.50;99.90;;;;;;5120573;28;20208;-55
2021/06/12 00:03:52;;;;;;;5.23;4.70;;;17.40;99.90;;;;;;5106508;28;20201;-49
2021/06/12 00:06:18;;;;;;;5.20;4.80;;;17.40;99.90;;;;;;5102262;28;20185;-54
2021/06/12 00:08:44;;;;;;;6.73;4.93;;;17.40;99.90;;;;;;5100564;28;20970;-47
2021/06/12 00:11:10;;;;;;;6.13;5.50;;;17.40;99.90;;;;;;5113391;28;20585;-47
2021/06/12 00:13:37;;;;;;;6.47;5.40;;;17.40;99.90;;;;;;5104742;28;22459;-48
2021/06/12 00:16:03;;;;;;;6.23;5.30;;;17.30;99.90;;;;;;5120984;28;20201;-47
2021/06/12 00:18:29;;;;;;;6.67;5.53;;;17.30;99.90;;;;;;5104994;28;20205;-53
2021/06/12 00:20:58;;;;;;;7.00;5.87;;;17.30;99.90;;;;;;5109198;28;20224;-48
2021/06/12 00:23:25;;;;;;;7.43;5.70;;;17.30;99.90;;;;;;5114956;27;20688;-55
2021/06/12 00:25:51;;;;;;;7.07;5.53;;;17.30;99.90;;;;;;5126804;27;20788;-47
2021/06/12 00:28:18;;;;;;;6.50;5.67;;;17.30;99.90;;;;;;5126503;27;20268;-55
2021/06/12 00:30:44;;;;;;;8.03;6.07;;;17.40;99.90;;;;;;5101302;27;20916;-49
2021/06/12 00:33:11;;;;;;;6.33;5.60;;;17.40;99.90;;;;;;5126174;27;20201;-47
2021/06/12 00:35:37;;;;;;;8.77;5.80;;;17.40;99.90;;;;;;5108153;27;20208;-47
2021/06/12 00:38:05;;;;;;;6.03;5.00;;;17.40;99.90;;;;;;5107002;28;20193;-47
2021/06/12 00:40:31;;;;;;;6.30;5.20;;;17.40;99.90;;;;;;5102802;28;20217;-55
2021/06/12 00:42:57;;;;;;;7.40;5.27;;;17.50;99.90;;;;;;5107456;28;20197;-49
2021/06/12 00:45:27;;;;;;;6.40;5.27;;;17.50;99.90;;;;;;5097645;27;20189;-54
2021/06/12 00:47:55;;;;;;;6.37;5.77;;;17.50;99.90;;;;;;5120436;27;20208;-48
2021/06/12 00:50:23;;;;;;;6.40;5.70;;;17.40;99.90;;;;;;5123608;27;20303;-55
2021/06/12 00:52:49;;;;;;;6.00;5.40;;;17.40;99.90;;;;;;5118936;27;20963;-50
2021/06/12 00:55:17;;;;;;;8.90;6.17;;;17.50;99.90;;;;;;5126096;27;20267;-53
2021/06/12 00:57:44;;;;;;;8.53;6.30;;;17.40;99.90;;;;;;5124877;27;20184;-52
2021/06/12 01:00:13;;;;;;;10.13;6.70;;;17.40;99.90;;;;;;5107187;27;20232;-51
2021/06/12 01:02:39;;;;;;;11.60;7.93;;;17.40;99.90;;;;;;5097270;27;20204;-51
2021/06/12 01:05:08;;;;;;;9.53;7.20;;;17.40;99.90;;;;;;5127445;27;20723;-51
2021/06/12 01:07:35;;;;;;;10.27;8.40;;;17.40;99.90;;;;;;5117503;27;20208;-53
2021/06/12 01:10:02;;;;;;;10.97;7.40;;;17.40;99.90;;;;;;5126403;27;20212;-49
2021/06/12 01:12:37;;;;;;;10.23;8.23;;;17.40;99.90;;;;;;5103256;28;20189;-55
2021/06/12 01:15:06;;;;;;;10.93;9.30;;;17.40;99.90;;;;;;5106947;27;20188;-48
2021/06/12 01:17:36;;;;;;;12.90;8.87;;;17.40;99.90;;;;;;5090698;27;22055;-55
2021/06/12 01:20:18;;;;;;;12.63;9.80;;;17.40;99.90;;;;;;5123253;27;20204;-47
2021/06/12 01:23:01;;;;;;;18.07;9.77;;;17.40;99.90;;;;;;5109198;27;20931;-47
2021/06/12 01:25:36;;;;;;;16.47;9.67;;;17.40;99.90;;;;;;5103428;28;20669;-53
2021/06/12 01:28:19;;;;;;;13.70;9.50;;;17.40;99.90;;;;;;5103781;27;20226;-48
2021/06/12 01:30:52;;;;;;;14.03;10.13;;;17.40;99.90;;;;;;5122544;27;20208;-48
2021/06/12 01:33:19;;;;;;;14.20;10.57;;;17.40;99.90;;;;;;5118078;27;20718;-53
2021/06/12 01:35:50;;;;;;;13.50;10.13;;;17.40;99.90;;;;;;5108229;27;20193;-50
2021/06/12 01:38:19;;;;;;;11.23;9.50;;;17.40;99.90;;;;;;5120547;27;20201;-54
2021/06/12 01:40:47;;;;;;;12.80;9.03;;;17.40;99.90;;;;;;5123408;27;20215;-47
2021/06/12 01:43:14;;;;;;;12.07;9.60;;;17.40;99.90;;;;;;5117961;27;20198;-55
2021/06/12 01:45:42;;;;;;;13.07;9.03;;;17.40;99.90;;;;;;5103665;27;20186;-47
2021/06/12 01:48:11;;;;;;;12.63;9.33;;;17.30;99.90;;;;;;5105868;28;20193;-48
2021/06/12 01:50:38;;;;;;;13.53;8.93;;;17.40;99.90;;;;;;5098308;27;20227;-47
2021/06/12 01:53:05;;;;;;;9.03;8.03;;;17.40;99.90;;;;;;5114549;27;20201;-50
2021/06/12 01:55:33;;;;;;;12.97;8.83;;;17.40;99.90;;;;;;5122204;27;20200;-50
2021/06/12 01:58:01;;;;;;;13.93;8.23;;;17.40;99.90;;;;;;5125822;27;20199;-49
2021/06/12 02:00:27;;;;;;;9.80;8.53;;;17.40;99.90;;;;;;5122573;27;20227;-54
2021/06/12 02:02:55;;;;;;;12.23;8.80;;;17.40;99.90;;;;;;5125551;27;20249;-47
2021/06/12 02:05:24;;;;;;;9.07;8.00;;;17.40;99.90;;;;;;5106085;27;20208;-55
2021/06/12 02:07:51;;;;;;;13.00;8.33;;;17.40;99.90;;;;;;5114814;27;20201;-52
2021/06/12 02:10:19;;;;;;;11.03;8.03;;;17.40;99.90;;;;;;5104196;28;20209;-55
2021/06/12 02:12:45;;;;;;;12.30;7.93;;;17.40;99.90;;;;;;5103129;28;20189;-48
2021/06/12 02:15:13;;;;;;;9.93;7.57;;;17.40;99.90;;;;;;5106722;27;20238;-49
2021/06/12 02:17:40;;;;;;;8.70;7.57;;;17.40;99.90;;;;;;5101829;28;20181;-48
2021/06/12 02:20:08;;;;;;;10.43;7.30;;;17.40;99.90;;;;;;5093799;27;20679;-49
2021/06/12 02:22:38;;;;;;;10.20;7.40;;;17.50;99.90;;;;;;5114366;27;20176;-46
2021/06/12 02:25:07;;;;;;;7.93;7.13;;;17.50;99.90;;;;;;5120197;27;20261;-47
2021/06/12 02:27:35;;;;;;;8.60;7.43;;;17.50;99.90;;;;;;5121859;27;20980;-52
2021/06/12 02:30:03;;;;;;;8.23;7.10;;;17.50;99.90;;;;;;5124989;27;20211;-52
2021/06/12 02:32:29;;;;;;;8.40;7.50;;;17.50;99.90;;;;;;5109352;27;20269;-54
2021/06/12 02:34:55;;;;;;;9.80;7.67;;;17.50;99.90;;;;;;5092592;27;20206;-50
2021/06/12 02:37:21;;;;;;;9.93;7.63;;;17.50;99.90;;;;;;5122790;27;20196;-56
2021/06/12 02:39:49;;;;;;;12.63;7.77;;;17.50;99.90;;;;;;5106161;27;20224;-49
2021/06/12 02:42:15;;;;;;;8.77;7.67;;;17.40;99.90;;;;;;5104609;28;20193;-57
2021/06/12 02:44:41;;;;;;;10.13;8.00;;;17.30;99.90;;;;;;5101530;28;20980;-49
2021/06/12 02:47:12;;;;;;;10.43;8.13;;;17.30;99.90;;;;;;5106653;27;20197;-47
2021/06/12 02:49:41;;;;;;;12.27;9.07;;;17.30;99.90;;;;;;5106335;27;20514;-50
2021/06/12 02:52:14;;;;;;;9.63;8.40;;;17.30;99.90;;;;;;5106752;27;20562;-50
2021/06/12 02:54:41;;;;;;;10.70;9.03;;;17.20;99.90;;;;;;5115527;27;20205;-48
2021/06/12 02:57:10;;;;;;;11.80;9.00;;;17.20;99.90;;;;;;5104701;28;20189;-49
2021/06/12 02:59:38;;;;;;;12.67;9.00;;;17.20;99.90;;;;;;5099863;28;20217;-52
2021/06/12 03:02:07;;;;;;;11.00;8.77;;;17.20;99.90;;;;;;5118755;27;20220;-49
2021/06/12 03:04:36;;;;;;;12.60;9.70;;;17.10;99.90;;;;;;5121321;27;20920;-47
2021/06/12 03:07:04;;;;;;;10.43;9.13;;;17.10;99.90;;;;;;5110062;27;20216;-52
2021/06/12 03:09:31;;;;;;;13.07;9.57;;;17.10;99.90;;;;;;5120290;27;20200;-53
2021/06/12 03:11:58;;;;;;;11.40;9.53;;;17.10;99.90;;;;;;5107599;27;20209;-47
2021/06/12 03:14:28;;;;;;;15.40;10.60;;;17.10;99.90;;;;;;5111939;27;20195;-55
2021/06/12 03:16:55;;;;;;;15.33;10.67;;;17.10;99.90;;;;;;5123907;27;20197;-50
2021/06/12 03:19:22;;;;;;;14.37;11.73;;;17.10;99.90;;;;;;5120142;27;20217;-54
2021/06/12 03:21:50;;;;;;;17.33;11.80;;;17.00;99.90;;;;;;5107846;27;20226;-49
2021/06/12 03:24:16;;;;;;;18.67;12.53;;;17.00;99.90;;;;;;5123492;27;20193;-54
2021/06/12 03:26:43;;;;;;;17.90;12.20;;;17.00;99.90;;;;;;5106158;27;20216;-49
2021/06/12 03:29:10;;;;;;;16.43;11.83;;;17.10;99.90;;;;;;5117279;27;20224;-50
2021/06/12 03:31:38;;;;;;;13.97;11.77;;;17.10;99.90;;;;;;5120608;27;20200;-50
2021/06/12 03:34:04;;;;;;;15.57;11.23;;;17.10;99.90;;;;;;5124699;27;20245;-49
2021/06/12 03:36:31;;;;;;;20.10;12.13;;;17.10;99.90;;;;;;5106907;27;20687;-57
2021/06/12 03:38:57;;;;;;;18.17;11.77;;;17.10;99.90;;;;;;5120088;27;20622;-52
2021/06/12 03:41:25;;;;;;;16.13;11.37;;;17.10;99.90;;;;;;5100313;28;20209;-54
2021/06/12 03:43:52;;;;;;;13.83;10.93;;;17.00;99.90;;;;;;5115431;27;20184;-49
2021/06/12 03:46:19;;;;;;;14.00;10.80;;;17.00;99.90;;;;;;5123024;27;20193;-55
2021/06/12 03:48:49;;;;;;;15.00;11.07;;;17.00;99.90;;;;;;5121149;27;20264;-51
2021/06/12 03:51:18;;;;;;;13.03;11.00;;;17.10;99.90;;;;;;5119124;27;20208;-56
2021/06/12 03:53:46;;;;;;;15.77;10.00;;;17.00;99.90;;;;;;5107622;27;20192;-50
2021/06/12 03:56:13;;;;;;;11.37;9.47;;;17.00;99.90;;;;;;5122672;27;20253;-55
2021/06/12 03:58:41;;;;;;;12.03;10.00;;;17.00;99.90;;;;;;5104976;28;20902;-49
2021/06/12 04:01:07;;;;;;;11.83;10.10;;;17.00;99.90;;;;;;5098843;28;20282;-47
2021/06/12 04:03:33;;;;;;;11.73;9.33;;;17.00;99.90;;;;;;5119901;28;20189;-47
2021/06/12 04:06:01;;;;;;;11.80;9.73;;;17.00;99.90;;;;;;5113305;28;20201;-48
2021/06/12 04:08:27;;;;;;;12.53;9.07;;;17.10;99.90;;;;;;5095412;28;20204;-53
2021/06/12 04:10:53;;;;;;;12.93;9.03;;;17.10;99.90;;;;;;5123435;28;20212;-48
2021/06/12 04:13:19;;;;;;;17.60;10.03;;;17.10;99.90;;;;;;5120308;28;20193;-54
2021/06/12 04:15:45;;;;;;;14.67;9.47;;;17.00;99.90;;;;;;5100042;28;20200;-47
2021/06/12 04:18:12;;;;;;;11.00;8.90;;;17.00;99.90;;;;;;5118665;28;20581;-54
2021/06/12 04:20:39;;;;;;;10.87;8.83;;;17.00;99.90;;;;;;5111723;28;20968;-48
2021/06/12 04:23:07;;;;;;;9.67;8.60;;;17.10;99.90;;;;;;5121178;28;20199;-49
2021/06/12 04:25:34;;;;;;;11.30;8.53;;;17.10;99.90;;;;;;5104695;28;20266;-47
2021/06/12 04:28:00;;;;;;;10.30;8.47;;;17.10;99.90;;;;;;5123338;28;20195;-47
2021/06/12 04:30:26;;;;;;;9.00;8.10;;;17.10;99.90;;;;;;5105896;28;20252;-53
2021/06/12 04:32:52;;;;;;;11.07;8.40;;;17.10;99.90;;;;;;5103426;28;20236;-48
2021/06/12 04:35:19;;;;;;;9.93;7.90;;;17.10;99.90;;;;;;5101463;28;20182;-54
2021/06/12 04:37:45;;;;;;;10.00;7.80;;;17.10;99.90;;;;;;5096741;28;20266;-52
2021/06/12 04:40:14;;;;;;;14.43;8.17;;;17.10;99.90;;;;;;5107526;28;20217;-53
2021/06/12 04:42:41;;;;;;;8.00;7.20;;;17.10;99.90;;;;;;5120196;28;20184;-47
2021/06/12 04:45:09;;;;;;;10.53;8.00;;;17.10;99.90;;;;;;5123756;27;20204;-49
2021/06/12 04:47:36;;;;;;;9.93;8.47;;;17.20;99.90;;;;;;5096468;28;20288;-47
2021/06/12 04:50:04;;;;;;;11.13;8.00;;;17.10;99.90;;;;;;5122063;28;20289;-48
2021/06/12 04:52:30;;;;;;;11.00;8.63;;;17.10;99.90;;;;;;5105365;28;20197;-50
2021/06/12 04:54:56;;;;;;;10.40;8.37;;;17.20;99.90;;;;;;5103565;28;20216;-50
2021/06/12 04:57:24;;;;;;;9.93;7.97;;;17.20;99.90;;;;;;5112614;28;20231;-54
2021/06/12 04:59:50;;;;;;;12.97;8.50;;;17.20;99.90;;;;;;5121536;28;20220;-50
2021/06/12 05:02:16;;;;;;;12.00;8.50;;;17.20;99.90;;;;;;5102008;28;20258;-54
2021/06/12 05:04:42;;;;;;;13.77;8.57;;;17.20;99.90;;;;;;5100838;28;20728;-48
2021/06/12 05:07:08;;;;;;;10.70;8.10;;;17.20;99.90;;;;;;5102005;27;20197;-54
2021/06/12 05:09:34;;;;;;;15.50;8.63;;;17.10;99.90;;;;;;5121816;27;20223;-48
2021/06/12 05:12:01;;;;;;;9.33;8.17;;;17.20;99.90;;;;;;5115727;27;20204;-48
2021/06/12 05:14:28;;;;;;;12.53;9.13;;;17.20;99.90;;;;;;5128340;27;20620;-54
2021/06/12 05:16:54;;;;;;;12.23;8.47;;;17.20;99.90;;;;;;5122360;27;20665;-47
2021/06/12 05:19:20;;;;;;;11.50;9.00;;;17.20;99.90;;;;;;5123828;27;20204;-55
2021/06/12 05:21:48;;;;;;;12.80;9.43;;;17.20;99.90;;;;;;5111036;27;20211;-54
2021/06/12 05:24:15;;;;;;;12.67;9.93;;;17.20;99.90;;;;;;5117291;27;20196;-53
2021/06/12 05:26:41;;;;;;;17.87;10.60;;;17.20;99.90;;;;;;5100566;27;20204;-47
2021/06/12 05:29:07;;;;;;;14.67;10.03;;;17.20;99.90;;;;;;5117525;27;20184;-46
2021/06/12 05:31:35;;;;;;;13.10;9.90;;;17.30;99.90;;;;;;5127780;27;20200;-48
2021/06/12 05:34:01;;;;;;;15.23;10.60;;;17.30;99.90;;;;;;5118356;27;20200;-53
2021/06/12 05:36:27;;;;;;;12.97;9.13;;;17.30;99.90;;;;;;5121796;27;20202;-47
2021/06/12 05:38:53;;;;;;;15.37;10.40;;;17.20;99.90;;;;;;5113265;27;20233;-55
2021/06/12 05:41:20;;;;;;;14.47;10.93;;;17.30;99.90;;;;;;5111016;27;21114;-47
2021/06/12 05:43:46;;;;;;;15.27;10.43;;;17.30;99.90;;;;;;5107494;27;20201;-55
2021/06/12 05:46:12;;;;;;;14.70;10.83;;;17.30;99.90;;;;;;5110289;27;20204;-49
2021/06/12 05:48:39;;;;;;;14.50;10.07;;;17.30;99.90;;;;;;5107512;27;20216;-47
2021/06/12 05:51:05;;;;;;;14.90;11.13;;;17.30;99.90;;;;;;5107548;27;20524;-48
2021/06/12 05:53:32;;;;;;;15.03;10.33;;;17.30;99.90;;;;;;5117322;27;20201;-47
2021/06/12 05:55:59;;;;;;;18.00;11.20;;;17.40;99.90;;;;;;5118485;27;20193;-53
2021/06/12 05:58:25;;;;;;;17.57;11.80;;;17.40;99.90;;;;;;5098261;27;20231;-50
2021/06/12 06:00:51;;;;;;;16.70;10.77;;;17.40;99.90;;;;;;5111426;27;20217;-55
2021/06/12 06:03:17;;;;;;;14.87;11.37;;;17.40;99.90;;;;;;5115963;27;20223;-54
2021/06/12 06:05:45;;;;;;;17.17;11.80;;;17.40;99.90;;;;;;5105904;28;20189;-54
2021/06/12 06:08:11;;;;;;;15.87;11.80;;;17.40;99.90;;;;;;5100684;28;20198;-48
2021/06/12 06:10:37;;;;;;;17.77;12.40;;;17.40;99.90;;;;;;5113895;27;20219;-47
2021/06/12 06:13:04;;;;;;;17.43;11.53;;;17.40;99.90;;;;;;5102077;27;20828;-53
2021/06/12 06:15:30;;;;;;;15.73;12.20;;;17.50;99.90;;;;;;5102365;27;20204;-49
2021/06/12 06:17:56;;;;;;;18.67;12.47;;;17.50;99.90;;;;;;5119603;27;20197;-55
2021/06/12 06:20:22;;;;;;;16.80;12.80;;;17.50;99.90;;;;;;5119527;27;20256;-48
2021/06/12 06:22:50;;;;;;;19.67;12.90;;;17.50;99.90;;;;;;5124379;27;20701;-54
2021/06/12 06:25:16;;;;;;;17.70;11.97;;;17.50;99.90;;;;;;5121352;27;20257;-48
2021/06/12 06:27:43;;;;;;;15.87;11.37;;;17.50;99.90;;;;;;5122703;27;20201;-52
2021/06/12 06:30:11;;;;;;;18.53;12.73;;;17.50;99.90;;;;;;5089347;27;20924;-51
2021/06/12 06:32:37;;;;;;;23.17;12.40;;;17.50;99.90;;;;;;5116452;27;20208;-52
2021/06/12 06:35:05;;;;;;;18.13;13.00;;;17.50;99.90;;;;;;5117421;27;20774;-52
2021/06/12 06:37:31;;;;;;;16.73;12.43;;;17.60;99.90;;;;;;5130072;27;20181;-48
2021/06/12 06:39:58;;;;;;;20.27;13.03;;;17.50;99.90;;;;;;5104737;27;20246;-53
2021/06/12 06:42:24;;;;;;;20.10;12.80;;;17.60;99.90;;;;;;5119812;27;20208;-50
2021/06/12 06:44:51;;;;;;;17.40;12.53;;;17.60;99.90;;;;;;5117798;27;20694;-51
2021/06/12 06:47:17;;;;;;;17.27;13.13;;;17.60;99.90;;;;;;5115470;27;20196;-50
2021/06/12 06:49:43;;;;;;;18.97;12.27;;;17.60;99.90;;;;;;5119007;27;20215;-47
2021/06/12 06:52:09;;;;;;;14.63;11.50;;;17.60;99.90;;;;;;5121244;27;20192;-48
2021/06/12 06:54:35;;;;;;;14.63;11.30;;;17.70;99.90;;;;;;5124209;27;20185;-47
2021/06/12 06:57:03;;;;;;;16.73;11.70;;;17.70;99.90;;;;;;5115907;27;20200;-50
2021/06/12 06:59:30;;;;;;;13.23;10.57;;;17.70;99.90;;;;;;5107256;27;20228;-49
2021/06/12 07:01:56;;;;;;;19.83;11.93;;;17.80;99.90;;;;;;5105781;27;20666;-51
2021/06/12 07:04:23;;;;;;;15.60;11.00;;;17.80;99.90;;;;;;5115500;27;20195;-48
2021/06/12 07:06:49;;;;;;;12.80;10.97;;;17.80;99.90;;;;;;5118169;27;20264;-52
2021/06/12 07:09:15;;;;;;;12.93;9.30;;;17.80;99.90;;;;;;5121450;27;20185;-51
2021/06/12 07:11:41;;;;;;;12.70;10.20;;;17.80;99.90;;;;;;5116525;27;20253;-47
2021/06/12 07:14:08;;;;;;;10.33;8.60;;;17.80;99.90;;;;;;5106247;27;20193;-47
2021/06/12 07:16:35;;;;;;;14.87;8.87;;;17.70;99.90;;;;;;5085403;27;20217;-47
2021/06/12 07:19:01;;;;;;;11.20;8.30;;;17.70;99.90;;;;;;5121501;27;20640;-47
2021/06/12 07:21:27;;;;;;;11.10;7.93;;;17.70;99.90;;;;;;5125454;27;20207;-46
2021/06/12 07:23:53;;;;;;;8.93;8.00;;;17.70;99.90;;;;;;5119026;27;20212;-46
2021/06/12 07:26:20;;;;;;;14.03;8.67;;;17.70;99.90;;;;;;5127358;27;20625;-51
2021/06/12 07:28:46;;;;;;;11.10;8.17;;;17.70;99.90;;;;;;5132315;27;20204;-50
2021/06/12 07:31:13;;;;;;;9.30;7.73;;;17.80;99.90;;;;;;5115353;27;20247;-53
2021/06/12 07:33:39;;;;;;;9.80;7.87;;;17.70;99.90;;;;;;5129378;27;20252;-47
2021/06/12 07:36:06;;;;;;;11.43;7.80;;;17.70;99.90;;;;;;5133930;27;20196;-49
2021/06/12 07:38:32;;;;;;;10.00;8.47;;;17.70;99.90;;;;;;5107784;27;20252;-48
2021/06/12 07:40:58;;;;;;;10.13;9.03;;;17.60;99.90;;;;;;5125882;27;20709;-46
2021/06/12 07:43:24;;;;;;;11.60;8.93;;;17.60;99.90;;;;;;5097841;27;20209;-48
2021/06/12 07:45:51;;;;;;;10.10;8.50;;;17.60;99.90;;;;;;5118158;27;20658;-48
2021/06/12 07:48:18;;;;;;;9.73;7.90;;;17.60;99.90;;;;;;5104999;27;20213;-48
2021/06/12 07:50:45;;;;;;;11.67;8.47;;;17.60;99.90;;;;;;5116771;27;20209;-47
2021/06/12 07:53:11;;;;;;;10.03;8.33;;;17.60;99.90;;;;;;5109941;27;20718;-50
2021/06/12 07:55:38;;;;;;;9.33;7.47;;;17.60;99.90;;;;;;5113362;27;20204;-49
2021/06/12 07:58:04;;;;;;;10.10;8.73;;;17.60;99.90;;;;;;5103777;28;20207;-46
2021/06/12 08:00:30;;;;;;;10.80;8.70;;;17.50;99.90;;;;;;5105648;28;20224;-47
2021/06/12 08:02:57;;;;;;;10.13;9.13;;;17.50;99.90;;;;;;5107846;28;20245;-51
2021/06/12 08:05:24;;;;;;;9.37;8.43;;;17.40;99.90;;;;;;5112074;28;20185;-50
2021/06/12 08:07:51;;;;;;;13.97;8.90;;;17.30;99.90;;;;;;5118201;28;20208;-48
2021/06/12 08:10:17;;;;;;;13.67;8.53;;;17.30;99.90;;;;;;5098691;28;20237;-50
2021/06/12 08:12:45;;;;;;;10.27;8.47;;;17.30;99.90;;;;;;5098096;28;20193;-46
2021/06/12 08:15:12;;;;;;;11.43;8.80;;;17.40;99.90;;;;;;5102033;28;20185;-51
2021/06/12 08:17:38;;;;;;;9.13;8.23;;;17.50;99.90;;;;;;5088905;27;20200;-46
2021/06/12 08:20:06;;;;;;;9.60;8.70;;;17.60;99.90;;;;;;5123309;28;20658;-48
2021/06/12 08:22:34;;;;;;;9.77;8.67;;;17.70;99.90;;;;;;5107950;27;20206;-52
2021/06/12 08:25:00;;;;;;;11.63;9.00;;;17.80;99.90;;;;;;5117514;28;20200;-50
2021/06/12 08:27:26;;;;;;;10.40;9.17;;;17.90;99.90;;;;;;5114206;28;20249;-46
2021/06/12 08:29:52;;;;;;;11.23;8.60;;;18.00;99.90;;;;;;5123126;28;20201;-50
2021/06/12 08:32:18;;;;;;;10.23;9.13;;;18.00;99.90;;;;;;5114490;28;20204;-50
2021/06/12 08:34:45;;;;;;;9.57;8.30;;;18.00;99.90;;;;;;5103453;28;20227;-46
2021/06/12 08:37:11;;;;;;;8.27;7.47;;;17.90;99.90;;;;;;5121818;28;20197;-50
2021/06/12 08:39:38;;;;;;;9.07;7.90;;;17.90;99.90;;;;;;5108641;28;20385;-46
2021/06/12 08:42:05;;;;;;;9.50;7.10;;;17.80;99.90;;;;;;5121511;28;20196;-50
2021/06/12 08:44:33;;;;;;;8.63;7.77;;;17.90;99.90;;;;;;5116159;27;20219;-46
2021/06/12 08:46:59;;;;;;;7.53;6.83;;;17.80;99.90;;;;;;5120938;27;20209;-46
2021/06/12 08:49:25;;;;;;;9.30;5.67;;;17.90;99.90;;;;;;5117084;27;20281;-47
2021/06/12 08:51:52;;;;;;;8.97;6.27;;;17.90;99.90;;;;;;5127238;27;20197;-46
2021/06/12 08:54:20;;;;;;;6.83;5.17;;;17.90;99.90;;;;;;5120214;27;20269;-50
2021/06/12 08:56:49;;;;;;;7.33;4.83;;;18.00;99.90;;;;;;5123955;27;20274;-47
2021/06/12 08:59:15;;;;;;;4.57;4.17;;;18.00;99.90;;;;;;5104060;27;20198;-47
2021/06/12 09:01:42;;;;;;;6.33;4.10;;;18.00;99.90;;;;;;5101461;27;21057;-45
2021/06/12 09:04:08;;;;;;;4.97;3.43;;;18.10;99.90;;;;;;5106271;28;20747;-52
2021/06/12 09:06:35;;;;;;;3.10;2.73;;;18.20;99.90;;;;;;5103585;27;20201;-46
2021/06/12 09:09:01;;;;;;;5.90;3.10;;;18.30;99.90;;;;;;5118504;27;20200;-46
2021/06/12 09:11:34;;;;;;;5.00;2.57;;;18.40;99.90;;;;;;5108821;27;20212;-46
2021/06/12 09:14:02;;;;;;;4.97;2.90;;;18.50;99.90;;;;;;5115871;27;20208;-48
2021/06/12 09:16:32;;;;;;;3.23;2.23;;;18.60;99.90;;;;;;5103167;28;20950;-48
2021/06/12 09:19:04;;;;;;;4.87;2.87;;;18.60;99.90;;;;;;5115962;27;20257;-47
2021/06/12 09:21:33;;;;;;;6.60;2.80;;;18.60;99.90;;;;;;5108568;27;20211;-49
2021/06/12 09:24:01;;;;;;;4.40;2.50;;;18.70;99.90;;;;;;5126033;27;20721;-48
2021/06/12 09:26:42;;;;;;;7.37;2.40;;;18.70;99.90;;;;;;5096211;27;20197;-50
2021/06/12 09:29:10;;;;;;;3.63;2.27;;;18.80;99.90;;;;;;5098613;27;20212;-49
2021/06/12 09:31:45;;;;;;;6.27;2.00;;;18.80;99.90;;;;;;5131480;27;20211;-49
2021/06/12 09:34:13;;;;;;;6.07;2.27;;;18.80;99.90;;;;;;5114380;27;20280;-50
2021/06/12 09:36:39;;;;;;;5.33;2.47;;;18.80;99.90;;;;;;5112825;27;20596;-51
2021/06/12 09:39:11;;;;;;;2.63;1.90;;;19.00;99.90;;;;;;5142100;27;20184;-52
2021/06/12 09:41:41;;;;;;;5.37;1.97;;;19.10;99.90;;;;;;5121720;27;20196;-52
2021/06/12 09:44:07;;;;;;;4.00;2.03;;;19.20;99.90;;;;;;5120458;27;20208;-51
2021/06/12 09:46:40;;;;;;;2.93;1.47;;;19.10;99.90;;;;;;5119576;27;20192;-51
2021/06/12 09:49:08;;;;;;;5.80;1.87;;;19.10;99.90;;;;;;5114214;27;20292;-51
2021/06/12 09:51:35;;;;;;;3.87;2.27;;;19.00;99.90;;;;;;5105066;27;20278;-46
2021/06/12 09:54:04;;;;;;;2.83;1.63;;;18.80;99.90;;;;;;5123306;27;20196;-49
2021/06/12 09:56:32;;;;;;;3.73;1.63;;;18.70;99.90;;;;;;5112423;27;20188;-49
2021/06/12 09:59:00;;;;;;;3.20;1.90;;;18.70;99.90;;;;;;5123592;27;20192;-46
2021/06/12 10:01:30;;;;;;;6.33;1.80;;;18.50;99.90;;;;;;5113280;27;20845;-49
2021/06/12 10:04:14;;;;;;;5.90;2.00;;;18.50;99.90;;;;;;5126062;27;20776;-47
2021/06/12 10:06:40;;;;;;;6.13;1.80;;;18.50;99.90;;;;;;5106020;27;20237;-46
2021/06/12 10:09:07;;;;;;;3.47;1.63;;;18.50;99.90;;;;;;5113484;27;20193;-49
2021/06/12 10:11:35;;;;;;;3.40;1.70;;;18.60;99.90;;;;;;5117549;27;20288;-47
2021/06/12 10:14:02;;;;;;;4.97;1.53;;;18.70;99.90;;;;;;5125965;27;20196;-49
2021/06/12 10:16:31;;;;;;;3.77;1.77;;;18.70;99.90;;;;;;5114931;27;22786;-46
2021/06/12 10:18:59;;;;;;;6.60;1.70;;;18.60;99.90;;;;;;5115144;27;20201;-48
2021/06/12 10:21:27;;;;;;;6.97;1.50;;;18.50;99.90;;;;;;5115820;27;20366;-46
2021/06/12 10:23:53;;;;;;;6.33;1.50;;;18.30;99.90;;;;;;5103497;27;20862;-47
2021/06/12 10:26:21;;;;;;;3.60;1.27;;;18.30;99.90;;;;;;5116414;27;20209;-51
2021/06/12 10:28:48;;;;;;;4.50;1.73;;;18.30;99.90;;;;;;5104629;28;20197;-47
2021/06/12 10:31:16;;;;;;;2.40;1.37;;;18.40;99.90;;;;;;5114468;27;20220;-49
2021/06/12 10:33:43;;;;;;;6.87;1.67;;;18.50;99.90;;;;;;5129236;27;20216;-47
2021/06/12 10:36:12;;;;;;;3.17;0.93;;;18.50;99.90;;;;;;5115148;27;20662;-52
2021/06/12 10:38:40;;;;;;;2.30;1.77;;;18.60;99.90;;;;;;5106660;27;20188;-49
2021/06/12 10:41:19;;;;;;;1.43;1.10;;;18.70;99.90;;;;;;5135912;27;20283;-51
2021/06/12 10:43:45;;;;;;;4.57;1.60;;;18.90;99.90;;;;;;5110591;27;20205;-46
2021/06/12 10:46:15;;;;;;;3.70;1.10;;;19.00;99.90;;;;;;5125659;27;20188;-49
2021/06/12 10:48:43;;;;;;;4.03;1.00;;;19.00;99.90;;;;;;5113984;27;20205;-46
2021/06/12 10:51:12;;;;;;;4.70;1.20;;;19.00;99.90;;;;;;5122025;27;20224;-49
2021/06/12 10:53:42;;;;;;;3.47;1.13;;;19.00;99.90;;;;;;5114352;27;20663;-48
2021/06/12 10:56:10;;;;;;;3.23;1.30;;;19.00;99.90;;;;;;5127722;27;20196;-49
2021/06/12 10:58:48;;;;;;;5.33;1.43;;;19.00;99.90;;;;;;5118459;27;20208;-50
2021/06/12 11:01:16;;;;;;;3.30;1.50;;;19.00;99.90;;;;;;5128505;27;20329;-51
2021/06/12 11:03:46;;;;;;;6.23;2.20;;;18.90;99.90;;;;;;5115285;27;20204;-49
2021/06/12 11:06:36;;;;;;;7.40;2.37;;;18.80;99.90;;;;;;5129326;27;20193;-53
2021/06/12 11:09:39;;;;;;;3.97;1.90;;;18.90;99.90;;;;;;5105381;27;20205;-50
2021/06/12 11:12:30;;;;;;;2.97;1.53;;;18.80;99.90;;;;;;5135540;27;20223;-50
2021/06/12 11:14:59;;;;;;;2.57;1.90;;;18.90;99.90;;;;;;5120256;27;20204;-46
2021/06/12 11:17:25;;;;;;;4.33;1.97;;;19.00;99.90;;;;;;5123079;27;20200;-46
2021/06/12 11:20:24;;;;;;;2.30;1.50;;;19.20;99.90;;;;;;5132772;27;20279;-47
2021/06/12 11:22:53;;;;;;;3.07;1.80;;;19.10;99.90;;;;;;5124866;27;20250;-50
2021/06/12 11:25:44;;;;;;;2.67;1.70;;;18.90;99.90;;;;;;5105456;27;20205;-50
2021/06/12 11:28:38;;;;;;;5.57;2.00;;;18.90;99.90;;;;;;5122981;27;20220;-52
2021/06/12 11:31:30;;;;;;;4.50;1.77;;;19.00;99.90;;;;;;5103168;28;20757;-56
2021/06/12 11:34:10;;;;;;;4.87;1.83;;;19.00;99.90;;;;;;5099922;27;20201;-52
2021/06/12 11:36:37;;;;;;;4.90;2.20;;;18.90;99.90;;;;;;5115937;27;20201;-49
2021/06/12 11:39:03;;;;;;;7.07;1.87;;;18.90;99.90;;;;;;5123237;27;20253;-57
2021/06/12 11:41:30;;;;;;;4.87;2.30;;;19.00;99.90;;;;;;5101555;27;20273;-47
2021/06/12 11:43:59;;;;;;;3.30;2.07;;;19.20;99.90;;;;;;5124118;27;20603;-47
2021/06/12 11:46:31;;;;;;;7.87;1.97;;;19.20;99.90;;;;;;5114254;27;20207;-50
2021/06/12 11:48:59;;;;;;;4.83;2.40;;;19.20;99.90;;;;;;5122160;27;20240;-51
2021/06/12 11:51:31;;;;;;;4.53;1.97;;;19.30;99.90;;;;;;5113943;27;20207;-46
2021/06/12 11:54:21;;;;;;;7.27;2.07;;;19.40;99.90;;;;;;5123180;27;20220;-50
2021/06/12 11:56:49;;;;;;;5.07;2.13;;;19.40;99.90;;;;;;5106324;27;20258;-48
2021/06/12 11:59:20;;;;;;;3.37;2.00;;;19.50;99.90;;;;;;5119913;28;20666;-56
2021/06/12 12:01:48;;;;;;;3.77;2.27;;;19.70;99.90;;;;;;5118172;27;20197;-49
2021/06/12 12:04:16;;;;;;;3.77;2.27;;;19.40;99.90;;;;;;5117206;28;20562;-56
2021/06/12 12:06:50;;;;;;;3.30;1.90;;;19.10;99.90;;;;;;5120887;28;20205;-52
2021/06/12 12:09:25;;;;;;;2.97;2.10;;;19.00;99.90;;;;;;5119126;28;20188;-54
2021/06/12 12:11:53;;;;;;;6.63;2.77;;;19.00;99.90;;;;;;5103986;28;20292;-48
2021/06/12 12:14:27;;;;;;;3.53;2.10;;;18.90;99.90;;;;;;5120074;28;20193;-54
2021/06/12 12:16:53;;;;;;;7.67;2.47;;;18.90;99.90;;;;;;5118521;28;20843;-49
2021/06/12 12:19:20;;;;;;;5.90;2.33;;;18.90;99.90;;;;;;5122328;27;20203;-54
2021/06/12 12:21:49;;;;;;;6.00;2.47;;;18.90;99.90;;;;;;5121586;27;20192;-52
2021/06/12 12:24:15;;;;;;;5.43;2.27;;;18.80;99.90;;;;;;5119264;27;20196;-57
2021/06/12 12:26:54;;;;;;;7.87;2.20;;;18.90;99.90;;;;;;5116360;27;20212;-49
2021/06/12 12:29:24;;;;;;;5.47;1.97;;;19.10;99.90;;;;;;5122480;27;20189;-55
2021/06/12 12:31:52;;;;;;;4.73;1.80;;;19.10;99.90;;;;;;5119899;27;20207;-49
2021/06/12 12:34:28;;;;;;;3.70;1.90;;;19.40;99.90;;;;;;5121456;27;20215;-55
2021/06/12 12:36:55;;;;;;;7.10;2.73;;;19.60;99.90;;;;;;5107213;27;20303;-48
2021/06/12 12:39:22;;;;;;;7.23;1.90;;;19.70;99.90;;;;;;5121750;27;20188;-51
2021/06/12 12:41:55;;;;;;;4.67;1.90;;;19.50;99.90;;;;;;5109529;27;20217;-46
2021/06/12 12:44:24;;;;;;;4.70;1.90;;;19.60;99.90;;;;;;5123502;27;20454;-46
2021/06/12 12:46:51;;;;;;;4.63;1.80;;;19.80;99.90;;;;;;5126882;27;20192;-46